createdAt,value
2018-12-16T00:00:20.158Z,26.50
2018-12-16T00:02:52.819Z,28.77
2018-12-16T00:05:25.401Z,28.50
2018-12-16T00:07:58.131Z,25.53
2018-12-16T00:10:30.811Z,27.77
2018-12-16T00:13:03.433Z,27.77
2018-12-16T00:15:36.076Z,30.00
2018-12-16T00:18:08.779Z,30.23
2018-12-16T00:20:41.368Z,29.73
2018-12-16T00:23:13.995Z,28.53
2018-12-16T00:25:46.572Z,29.50
2018-12-16T00:28:19.285Z,33.10
2018-12-16T00:30:51.918Z,31.13
2018-12-16T00:33:24.522Z,30.63
2018-12-16T00:35:57.281Z,29.30
2018-12-16T00:38:29.905Z,31.33
2018-12-16T00:41:02.515Z,33.00
2018-12-16T00:43:35.150Z,32.43
2018-12-16T00:46:07.739Z,32.07
2018-12-16T00:48:40.444Z,35.23
2018-12-16T00:51:13.039Z,31.27
2018-12-16T00:53:45.697Z,31.57
2018-12-16T00:56:18.277Z,31.70
2018-12-16T00:58:50.904Z,32.33
2018-12-16T01:01:23.504Z,33.27
2018-12-16T01:03:56.165Z,33.87
2018-12-16T01:06:28.762Z,31.57
2018-12-16T01:09:01.392Z,32.70
2018-12-16T01:11:33.979Z,32.43
2018-12-16T01:14:06.606Z,30.43
2018-12-16T01:16:39.199Z,32.93
2018-12-16T01:19:11.948Z,31.70
2018-12-16T01:21:44.546Z,34.33
2018-12-16T01:24:18.364Z,32.50
2018-12-16T01:26:51.240Z,32.03
2018-12-16T01:29:23.950Z,32.13
2018-12-16T01:31:56.530Z,33.00
2018-12-16T01:34:29.249Z,34.73
2018-12-16T01:37:01.845Z,33.10
2018-12-16T01:39:34.478Z,33.30
2018-12-16T01:42:07.077Z,31.80
2018-12-16T01:44:39.709Z,32.57
2018-12-16T01:47:12.316Z,37.33
2018-12-16T01:49:44.923Z,35.43
2018-12-16T01:52:17.588Z,35.50
2018-12-16T01:54:50.291Z,37.13
2018-12-16T01:57:22.863Z,35.43
2018-12-16T01:59:55.493Z,35.40
2018-12-16T02:02:28.105Z,37.50
2018-12-16T02:05:00.749Z,34.67
2018-12-16T02:07:33.332Z,35.37
2018-12-16T02:10:06.159Z,38.80
2018-12-16T02:12:38.824Z,36.30
2018-12-16T02:15:11.592Z,37.20
2018-12-16T02:17:44.181Z,34.63
2018-12-16T02:20:16.751Z,37.03
2018-12-16T02:22:49.281Z,36.37
2018-12-16T02:25:21.960Z,36.07
2018-12-16T02:27:54.495Z,40.57
2018-12-16T02:30:29.166Z,35.53
2018-12-16T02:33:01.735Z,36.13
2018-12-16T02:35:34.326Z,36.20
2018-12-16T02:38:06.868Z,39.37
2018-12-16T02:40:39.434Z,36.30
2018-12-16T02:43:11.980Z,38.20
2018-12-16T02:45:44.578Z,40.40
2018-12-16T02:48:17.128Z,39.77
2018-12-16T02:50:49.815Z,41.70
2018-12-16T02:53:22.422Z,37.60
2018-12-16T02:55:54.979Z,38.87
2018-12-16T02:58:27.538Z,41.10
2018-12-16T03:01:00.176Z,42.70
2018-12-16T03:03:32.716Z,41.73
2018-12-16T03:06:05.274Z,40.17
2018-12-16T03:08:37.826Z,44.83
2018-12-16T03:11:10.378Z,43.23
2018-12-16T03:13:42.905Z,41.00
2018-12-16T03:16:15.495Z,44.83
2018-12-16T03:18:48.043Z,44.00
2018-12-16T03:21:20.609Z,42.87
2018-12-16T03:23:53.167Z,44.97
2018-12-16T03:26:25.743Z,43.13
2018-12-16T03:28:58.300Z,45.40
2018-12-16T03:31:30.927Z,45.33
2018-12-16T03:34:03.500Z,41.47
2018-12-16T03:36:36.093Z,44.00
2018-12-16T03:39:08.626Z,43.80
2018-12-16T03:41:41.195Z,45.47
2018-12-16T03:44:13.732Z,45.87
2018-12-16T03:46:46.325Z,40.80
2018-12-16T03:49:18.862Z,46.97
2018-12-16T03:51:51.520Z,42.43
2018-12-16T03:54:24.072Z,44.93
2018-12-16T03:56:56.634Z,41.57
2018-12-16T03:59:29.171Z,42.50
2018-12-16T04:02:01.726Z,45.93
2018-12-16T04:04:34.256Z,45.37
2018-12-16T04:07:06.848Z,42.50
2018-12-16T04:09:39.357Z,42.10
2018-12-16T04:12:12.098Z,43.60
2018-12-16T04:14:44.699Z,44.10
2018-12-16T04:17:17.498Z,38.90
2018-12-16T04:19:50.037Z,42.63
2018-12-16T04:22:22.623Z,42.27
2018-12-16T04:24:55.145Z,41.27
2018-12-16T04:27:27.782Z,41.53
2018-12-16T04:30:00.319Z,43.33
2018-12-16T04:32:32.907Z,40.20
2018-12-16T04:35:05.589Z,41.03
2018-12-16T04:37:38.157Z,41.53
2018-12-16T04:40:10.703Z,43.40
2018-12-16T04:42:43.395Z,41.77
2018-12-16T04:45:16.298Z,40.20
2018-12-16T04:47:48.944Z,41.03
2018-12-16T04:50:21.505Z,41.50
2018-12-16T04:52:54.059Z,40.77
2018-12-16T04:55:26.595Z,41.20
2018-12-16T04:57:59.218Z,37.60
2018-12-16T05:00:31.752Z,41.97
2018-12-16T05:03:04.319Z,40.77
2018-12-16T05:05:36.928Z,40.87
2018-12-16T05:08:09.741Z,42.07
2018-12-16T05:10:42.289Z,41.13
2018-12-16T05:13:14.975Z,40.10
2018-12-16T05:15:47.511Z,44.23
2018-12-16T05:18:20.162Z,42.10
2018-12-16T05:20:52.699Z,38.80
2018-12-16T05:23:25.281Z,39.83
2018-12-16T05:25:57.818Z,38.47
2018-12-16T05:28:30.486Z,41.83
2018-12-16T05:31:03.096Z,41.40
2018-12-16T05:33:35.665Z,44.53
2018-12-16T05:36:08.340Z,40.47
2018-12-16T05:38:40.985Z,42.60
2018-12-16T05:41:13.546Z,38.97
2018-12-16T05:43:46.147Z,43.30
2018-12-16T05:46:18.680Z,41.27
2018-12-16T05:48:51.660Z,43.50
2018-12-16T05:51:24.210Z,40.60
2018-12-16T05:53:56.845Z,44.13
2018-12-16T05:56:29.388Z,39.83
2018-12-16T05:59:02.033Z,41.17
2018-12-16T06:01:34.555Z,41.60
2018-12-16T06:04:07.135Z,42.47
2018-12-16T06:06:39.666Z,43.40
2018-12-16T06:09:12.229Z,42.67
2018-12-16T06:11:44.917Z,45.43
2018-12-16T06:14:17.597Z,43.00
2018-12-16T06:16:50.138Z,44.80
2018-12-16T06:19:22.720Z,41.87
2018-12-16T06:21:55.271Z,43.40
2018-12-16T06:24:27.837Z,41.33
2018-12-16T06:27:00.373Z,48.17
2018-12-16T06:29:32.965Z,41.37
2018-12-16T06:32:05.517Z,44.53
2018-12-16T06:34:38.081Z,43.43
2018-12-16T06:37:10.623Z,43.73
2018-12-16T06:39:43.203Z,44.70
2018-12-16T06:42:15.738Z,44.53
2018-12-16T06:44:48.309Z,45.33
2018-12-16T06:47:20.848Z,46.60
2018-12-16T06:49:53.440Z,46.23
2018-12-16T06:52:26.003Z,43.30
2018-12-16T06:54:58.681Z,44.73
2018-12-16T06:57:31.233Z,46.53
2018-12-16T07:00:05.361Z,46.77
2018-12-16T07:02:37.899Z,45.97
2018-12-16T07:05:10.475Z,44.93
2018-12-16T07:07:43.012Z,48.00
2018-12-16T07:10:15.970Z,46.77
2018-12-16T07:12:48.531Z,48.27
2018-12-16T07:15:21.111Z,46.27
2018-12-16T07:17:53.659Z,49.60
2018-12-16T07:20:26.231Z,45.40
2018-12-16T07:22:58.830Z,44.33
2018-12-16T07:25:31.401Z,46.80
2018-12-16T07:28:03.957Z,44.53
2018-12-16T07:30:36.557Z,44.03
2018-12-16T07:33:09.089Z,46.63
2018-12-16T07:35:41.730Z,41.97
2018-12-16T07:38:14.371Z,42.27
2018-12-16T07:40:47.032Z,45.90
2018-12-16T07:43:19.573Z,44.67
2018-12-16T07:45:52.258Z,46.40
2018-12-16T07:48:25.124Z,45.27
2018-12-16T07:50:57.738Z,46.60
2018-12-16T07:53:30.416Z,39.90
2018-12-16T07:56:03.959Z,44.80
2018-12-16T07:58:36.500Z,44.17
2018-12-16T08:01:09.076Z,40.30
2018-12-16T08:03:41.639Z,46.37
2018-12-16T08:06:14.256Z,42.63
2018-12-16T08:08:46.808Z,40.20
2018-12-16T08:11:19.506Z,41.33
2018-12-16T08:13:52.045Z,45.00
2018-12-16T08:16:24.597Z,41.57
2018-12-16T08:18:57.131Z,37.37
2018-12-16T08:21:29.793Z,41.30
2018-12-16T08:24:02.325Z,40.70
2018-12-16T08:26:34.898Z,36.27
2018-12-16T08:29:07.459Z,37.13
2018-12-16T08:31:40.110Z,39.23
2018-12-16T08:34:12.666Z,40.10
2018-12-16T08:36:45.286Z,34.97
2018-12-16T08:39:17.823Z,35.20
2018-12-16T08:41:50.403Z,36.40
2018-12-16T08:44:23.035Z,37.17
2018-12-16T08:46:55.591Z,35.60
2018-12-16T08:49:28.133Z,35.37
2018-12-16T08:52:00.771Z,33.30
2018-12-16T08:54:33.308Z,35.87
2018-12-16T08:57:05.865Z,33.50
2018-12-16T08:59:38.414Z,34.57
2018-12-16T09:02:11.036Z,33.63
2018-12-16T09:04:45.980Z,35.83
2018-12-16T09:07:18.574Z,33.57
2018-12-16T09:09:51.115Z,35.57
2018-12-16T09:12:23.704Z,32.73
2018-12-16T09:14:56.242Z,32.40
2018-12-16T09:17:28.831Z,33.83
2018-12-16T09:20:01.395Z,33.80
2018-12-16T09:22:34.030Z,32.10
2018-12-16T09:25:06.611Z,30.77
2018-12-16T09:27:39.176Z,31.00
2018-12-16T09:30:11.739Z,32.27
2018-12-16T09:32:44.332Z,31.00
2018-12-16T09:35:17.789Z,32.30
2018-12-16T09:37:50.617Z,30.00
2018-12-16T09:40:23.256Z,28.70
2018-12-16T09:42:56.941Z,30.50
2018-12-16T09:45:29.485Z,31.27
2018-12-16T09:48:02.304Z,29.00
2018-12-16T09:50:35.127Z,29.40
2018-12-16T09:53:07.716Z,30.53
2018-12-16T09:55:40.258Z,28.13
2018-12-16T09:58:12.908Z,29.77
2018-12-16T10:00:45.460Z,30.20
2018-12-16T10:03:18.289Z,28.20
2018-12-16T10:05:50.848Z,30.70
2018-12-16T10:08:23.529Z,31.17
2018-12-16T10:10:56.075Z,27.63
2018-12-16T10:13:28.735Z,30.20
2018-12-16T10:16:01.280Z,31.87
2018-12-16T10:18:33.850Z,32.40
2018-12-16T10:21:06.414Z,30.03
2018-12-16T10:23:38.980Z,30.27
2018-12-16T10:26:11.513Z,29.27
2018-12-16T10:28:44.072Z,31.87
2018-12-16T10:31:16.652Z,29.97
2018-12-16T10:33:49.689Z,30.90
2018-12-16T10:36:22.548Z,29.00
2018-12-16T10:38:55.891Z,30.77
2018-12-16T10:41:29.801Z,32.40
2018-12-16T10:44:02.995Z,31.73
2018-12-16T10:46:35.568Z,27.87
2018-12-16T10:49:08.200Z,30.60
2018-12-16T10:51:40.738Z,29.27
2018-12-16T10:54:13.336Z,27.90
2018-12-16T10:56:45.883Z,27.20
2018-12-16T10:59:18.542Z,29.73
2018-12-16T11:01:51.079Z,29.03
2018-12-16T11:04:23.667Z,32.53
2018-12-16T11:06:56.195Z,32.53
2018-12-16T11:09:28.879Z,30.40
2018-12-16T11:12:01.489Z,33.20
2018-12-16T11:14:34.064Z,30.27
2018-12-16T11:17:06.627Z,29.43
2018-12-16T11:19:39.184Z,30.03
2018-12-16T11:22:12.209Z,28.37
2018-12-16T11:24:44.781Z,29.77
2018-12-16T11:27:17.337Z,31.07
2018-12-16T11:29:49.981Z,29.57
2018-12-16T11:32:22.522Z,32.40
2018-12-16T11:34:55.147Z,29.47
2018-12-16T11:37:27.970Z,31.83
2018-12-16T11:40:00.658Z,30.93
2018-12-16T11:42:33.192Z,30.90
2018-12-16T11:45:06.513Z,30.03
2018-12-16T11:47:39.048Z,30.23
2018-12-16T11:50:11.628Z,27.40
2018-12-16T11:52:44.172Z,30.00
2018-12-16T11:55:16.765Z,29.37
2018-12-16T11:57:49.302Z,31.43
2018-12-16T12:00:21.860Z,28.90
2018-12-16T12:02:54.396Z,29.57
2018-12-16T12:05:26.976Z,29.93
2018-12-16T12:07:59.518Z,32.43
2018-12-16T12:10:32.098Z,28.90
2018-12-16T12:13:04.643Z,29.40
2018-12-16T12:15:37.235Z,28.87
2018-12-16T12:18:09.769Z,29.83
2018-12-16T12:20:42.371Z,27.90
2018-12-16T12:23:14.907Z,26.43
2018-12-16T12:25:47.472Z,27.80
2018-12-16T12:28:20.291Z,29.27
2018-12-16T12:30:52.920Z,26.67
2018-12-16T12:33:25.538Z,28.47
2018-12-16T12:35:58.199Z,28.07
2018-12-16T12:38:30.735Z,27.13
2018-12-16T12:41:03.317Z,28.47
2018-12-16T12:43:35.854Z,28.50
2018-12-16T12:46:08.504Z,27.90
2018-12-16T12:48:41.046Z,27.13
2018-12-16T12:51:13.618Z,28.90
2018-12-16T12:53:46.179Z,27.23
2018-12-16T12:56:18.848Z,28.70
2018-12-16T12:58:51.364Z,27.63
2018-12-16T13:01:23.959Z,26.50
2018-12-16T13:03:56.508Z,28.20
2018-12-16T13:06:29.081Z,30.20
2018-12-16T13:09:01.684Z,28.33
2018-12-16T13:11:34.259Z,27.40
2018-12-16T13:14:06.807Z,28.13
2018-12-16T13:16:39.536Z,26.20
2018-12-16T13:19:12.151Z,27.73
2018-12-16T13:21:44.757Z,27.77
2018-12-16T13:24:17.316Z,28.17
2018-12-16T13:26:49.978Z,26.23
2018-12-16T13:29:22.509Z,27.30
2018-12-16T13:31:55.168Z,27.77
2018-12-16T13:34:27.729Z,30.13
2018-12-16T13:37:00.293Z,26.93
2018-12-16T13:39:32.850Z,27.40
2018-12-16T13:42:05.546Z,27.13
2018-12-16T13:44:38.146Z,28.93
2018-12-16T13:47:10.831Z,27.33
2018-12-16T13:49:43.387Z,26.40
2018-12-16T13:52:15.957Z,27.40
2018-12-16T13:54:48.502Z,25.67
2018-12-16T13:57:21.068Z,26.40
2018-12-16T13:59:53.619Z,28.03
2018-12-16T14:02:26.247Z,25.57
2018-12-16T14:04:58.798Z,27.60
2018-12-16T14:07:31.337Z,27.73
2018-12-16T14:10:05.365Z,28.13
2018-12-16T14:12:38.043Z,26.97
2018-12-16T14:15:10.604Z,31.27
2018-12-16T14:17:43.177Z,26.00
2018-12-16T14:20:15.727Z,28.20
2018-12-16T14:22:48.444Z,27.13
2018-12-16T14:25:21.004Z,25.27
2018-12-16T14:27:53.644Z,24.23
2018-12-16T14:30:26.231Z,27.63
2018-12-16T14:32:59.024Z,26.07
2018-12-16T14:35:31.826Z,28.40
2018-12-16T14:38:04.950Z,31.57
2018-12-16T14:40:37.468Z,25.77
2018-12-16T14:43:10.021Z,27.73
2018-12-16T14:45:42.601Z,23.63
2018-12-16T14:48:16.939Z,27.20
2018-12-16T14:50:49.685Z,27.73
2018-12-16T14:53:22.262Z,25.77
2018-12-16T14:55:55.393Z,25.03
2018-12-16T14:58:28.256Z,26.07
2018-12-16T15:01:00.867Z,28.53
2018-12-16T15:03:33.543Z,27.70
2018-12-16T15:06:06.236Z,26.63
2018-12-16T15:08:38.844Z,28.20
2018-12-16T15:11:11.525Z,27.50
2018-12-16T15:13:44.227Z,24.00
2018-12-16T15:16:16.907Z,25.20
2018-12-16T15:18:49.635Z,25.97
2018-12-16T15:21:22.172Z,26.50
2018-12-16T15:23:55.044Z,25.67
2018-12-16T15:26:27.642Z,27.07
2018-12-16T15:29:00.272Z,25.03
2018-12-16T15:31:32.872Z,23.53
2018-12-16T15:34:05.629Z,23.47
2018-12-16T15:36:38.236Z,23.50
2018-12-16T15:39:10.931Z,25.00
2018-12-16T15:41:43.467Z,25.90
2018-12-16T15:44:16.204Z,24.43
2018-12-16T15:46:48.777Z,23.27
2018-12-16T15:49:21.511Z,26.17
2018-12-16T15:51:54.053Z,23.83
2018-12-16T15:54:26.699Z,26.40
2018-12-16T15:56:59.235Z,21.63
2018-12-16T15:59:31.867Z,23.73
2018-12-16T16:02:04.413Z,24.90
2018-12-16T16:04:36.979Z,23.47
2018-12-16T16:07:09.547Z,24.30
2018-12-16T16:09:42.215Z,23.47
2018-12-16T16:12:14.761Z,24.17
2018-12-16T16:14:47.344Z,22.93
2018-12-16T16:17:19.956Z,26.03
2018-12-16T16:19:52.574Z,23.33
2018-12-16T16:22:25.133Z,24.03
2018-12-16T16:24:57.835Z,24.23
2018-12-16T16:27:30.383Z,26.20
2018-12-16T16:30:04.028Z,23.23
2018-12-16T16:32:36.559Z,24.13
2018-12-16T16:35:10.770Z,23.47
2018-12-16T16:37:43.396Z,24.17
2018-12-16T16:40:16.393Z,24.27
2018-12-16T16:42:48.941Z,24.67
2018-12-16T16:45:21.512Z,26.57
2018-12-16T16:47:54.052Z,26.40
2018-12-16T16:50:26.701Z,24.00
2018-12-16T16:52:59.254Z,24.60
2018-12-16T16:55:31.978Z,24.73
2018-12-16T16:58:04.530Z,21.90
2018-12-16T17:00:37.147Z,23.10
2018-12-16T17:03:09.696Z,23.30
2018-12-16T17:05:42.272Z,25.10
2018-12-16T17:08:14.832Z,24.07
2018-12-16T17:10:47.441Z,25.00
2018-12-16T17:13:20.014Z,25.97
2018-12-16T17:15:53.344Z,26.23
2018-12-16T17:18:25.908Z,23.13
2018-12-16T17:20:58.774Z,24.47
2018-12-16T17:23:31.808Z,23.10
2018-12-16T17:26:04.698Z,23.67
2018-12-16T17:28:37.678Z,24.00
2018-12-16T17:31:10.676Z,27.20
2018-12-16T17:33:43.698Z,24.17
2018-12-16T17:36:16.487Z,25.40
2018-12-16T17:38:49.042Z,27.43
2018-12-16T17:41:21.705Z,26.67
2018-12-16T17:43:54.263Z,26.23
2018-12-16T17:46:26.933Z,26.67
2018-12-16T17:48:59.492Z,25.37
2018-12-16T17:51:32.073Z,28.53
2018-12-16T17:54:04.707Z,27.77
2018-12-16T17:56:37.428Z,26.17
2018-12-16T17:59:10.061Z,26.60
2018-12-16T18:01:42.984Z,29.03
2018-12-16T18:04:15.531Z,29.30
2018-12-16T18:06:48.781Z,29.03
2018-12-16T18:09:21.549Z,26.70
2018-12-16T18:11:54.132Z,27.13
2018-12-16T18:14:26.734Z,26.20
2018-12-16T18:17:00.446Z,28.13
2018-12-16T18:19:33.073Z,31.13
2018-12-16T18:22:05.642Z,26.33
2018-12-16T18:24:38.502Z,29.53
2018-12-16T18:27:11.764Z,29.23
2018-12-16T18:29:44.344Z,26.83
2018-12-16T18:32:17.019Z,27.63
2018-12-16T18:34:49.931Z,27.57
2018-12-16T18:37:22.773Z,32.67
2018-12-16T18:39:55.318Z,27.50
2018-12-16T18:42:27.979Z,27.57
2018-12-16T18:45:00.532Z,27.17
2018-12-16T18:47:33.310Z,26.17
2018-12-16T18:50:08.011Z,29.93
2018-12-16T18:52:40.617Z,30.53
2018-12-16T18:55:13.830Z,28.80
2018-12-16T18:57:46.440Z,29.20
2018-12-16T19:00:19.176Z,30.67
2018-12-16T19:02:51.929Z,29.60
2018-12-16T19:05:24.614Z,29.73
2018-12-16T19:07:57.559Z,27.50
2018-12-16T19:10:30.086Z,26.30
2018-12-16T19:13:02.668Z,25.90
2018-12-16T19:15:35.357Z,28.33
2018-12-16T19:18:07.937Z,29.23
2018-12-16T19:20:40.551Z,27.80
2018-12-16T19:23:13.212Z,25.17
2018-12-16T19:25:45.758Z,27.40
2018-12-16T19:28:18.435Z,29.90
2018-12-16T19:30:51.032Z,30.33
2018-12-16T19:33:23.664Z,27.73
2018-12-16T19:35:56.261Z,26.83
2018-12-16T19:38:28.871Z,27.40
2018-12-16T19:41:01.429Z,27.03
2018-12-16T19:43:34.091Z,27.67
2018-12-16T19:46:06.640Z,28.27
2018-12-16T19:48:39.207Z,24.70
2018-12-16T19:51:11.750Z,27.13
2018-12-16T19:53:44.324Z,27.20
2018-12-16T19:56:16.920Z,27.93
2018-12-16T19:58:49.999Z,28.07
2018-12-16T20:01:22.679Z,27.93
2018-12-16T20:04:01.105Z,25.67
2018-12-16T20:06:51.422Z,31.20
2018-12-16T20:09:24.035Z,26.97
2018-12-16T20:11:56.564Z,28.27
2018-12-16T20:14:29.174Z,26.70
2018-12-16T20:17:01.713Z,26.80
2018-12-16T20:19:34.414Z,26.97
2018-12-16T20:22:06.962Z,26.47
2018-12-16T20:24:39.615Z,26.00
2018-12-16T20:27:12.203Z,31.63
2018-12-16T20:29:45.152Z,29.30
2018-12-16T20:32:17.699Z,26.73
2018-12-16T20:34:50.403Z,30.43
2018-12-16T20:37:22.949Z,30.13
2018-12-16T20:39:55.796Z,29.13
2018-12-16T20:42:28.405Z,26.53
2018-12-16T20:45:01.251Z,25.73
2018-12-16T20:47:33.823Z,29.00
2018-12-16T20:50:07.072Z,28.80
2018-12-16T20:52:39.610Z,29.13
2018-12-16T20:55:13.168Z,28.77
2018-12-16T20:57:45.707Z,28.30
2018-12-16T21:00:18.309Z,26.60
2018-12-16T21:02:50.955Z,27.87
2018-12-16T21:05:23.568Z,33.63
2018-12-16T21:07:56.128Z,29.33
2018-12-16T21:10:29.019Z,26.27
2018-12-16T21:13:07.140Z,29.00
2018-12-16T21:15:45.250Z,31.70
2018-12-16T21:18:23.825Z,32.80
2018-12-16T21:20:56.404Z,31.23
2018-12-16T21:23:28.974Z,34.10
2018-12-16T21:26:01.659Z,34.43
2018-12-16T21:28:34.268Z,29.63
2018-12-16T21:31:07.055Z,31.67
2018-12-16T21:33:39.653Z,30.30
2018-12-16T21:36:13.266Z,33.83
2018-12-16T21:38:45.838Z,33.27
2018-12-16T21:41:18.563Z,37.40
2018-12-16T21:43:51.128Z,30.60
2018-12-16T21:46:23.731Z,32.67
2018-12-16T21:48:56.323Z,36.30
2018-12-16T21:51:29.036Z,30.80
2018-12-16T21:54:01.605Z,42.80
2018-12-16T21:56:34.199Z,38.87
2018-12-16T21:59:06.820Z,32.57
2018-12-16T22:01:39.436Z,37.23
2018-12-16T22:04:12.043Z,35.10
2018-12-16T22:06:44.745Z,35.83
2018-12-16T22:09:17.345Z,34.23
2018-12-16T22:11:50.239Z,37.03
2018-12-16T22:14:22.912Z,37.47
2018-12-16T22:16:55.629Z,38.53
2018-12-16T22:19:28.216Z,39.37
2018-12-16T22:22:00.942Z,34.10
2018-12-16T22:24:33.561Z,38.33
2018-12-16T22:27:06.218Z,37.70
2018-12-16T22:29:38.840Z,33.97
2018-12-16T22:32:11.442Z,31.77
2018-12-16T22:34:44.025Z,34.47
2018-12-16T22:37:16.704Z,34.90
2018-12-16T22:39:49.305Z,36.47
2018-12-16T22:42:22.078Z,31.87
2018-12-16T22:44:54.671Z,33.10
2018-12-16T22:47:27.346Z,34.67
2018-12-16T22:49:59.958Z,34.47
2018-12-16T22:52:32.604Z,39.23
2018-12-16T22:55:05.641Z,41.27
2018-12-16T22:57:38.250Z,32.30
2018-12-16T23:00:13.167Z,44.83
2018-12-16T23:02:45.857Z,40.70
2018-12-16T23:05:18.470Z,36.30
2018-12-16T23:07:51.175Z,34.70
2018-12-16T23:10:23.740Z,39.10
2018-12-16T23:12:56.458Z,40.17
2018-12-16T23:15:29.047Z,42.73
2018-12-16T23:18:01.811Z,42.97
2018-12-16T23:20:34.391Z,40.03
2018-12-16T23:23:06.990Z,42.00
2018-12-16T23:25:39.577Z,36.23
2018-12-16T23:28:12.389Z,35.87
2018-12-16T23:30:44.977Z,38.30
2018-12-16T23:33:17.611Z,38.00
2018-12-16T23:35:50.225Z,38.33
2018-12-16T23:38:22.927Z,39.87
2018-12-16T23:40:55.858Z,39.20
2018-12-16T23:43:28.609Z,38.13
2018-12-16T23:46:01.171Z,38.40
2018-12-16T23:48:33.785Z,43.00
2018-12-16T23:51:06.360Z,42.27
2018-12-16T23:53:38.957Z,40.37
2018-12-16T23:56:11.515Z,39.03
2018-12-16T23:58:44.241Z,36.53
